Terminal Aerodrome Forecast
Issued by NWS

Home | Current Version | Previous Version | Text Only | Print | Product List | Glossary On
Versions: 1 2 3 4 5 6 7 8 9 10 11 12 13 14 15 16
000
FTUS44 KTSA 231100
TAFMLC
TAF
KMLC 231120Z 2312/2412 15003KT 4SM BR SCT080
     FM231500 15004KT P6SM SCT050 SCT120
     FM232000 01005KT P6SM VCTS SCT050CB PROB30 2321/2324 3SM -TSRA
      BKN035CB
     FM240100 VRB03KT P6SM SCT250=

USA.gov is the U.S. government's official web portal to all federal, state and local government web resources and services.